SCS weather

Scatsta Airport
Shetland Islands, Scotland, United Kingdom

Public forecast

Using degrees Celsius for public forecast. Weather courtesy of forecast.io.

METAR (pilot weather report)

Retrieved 2019/04/23 16:20 UTC (0 seconds ago):

EGPM 231620Z 15022KT 9999 FEW025 11/07 Q1009 NOSIG

TAF (pilot weather forecast)

Forecast is more than 12 hours old.

Retrieved 2013/04/29 03:39 UTC (6 years ago):

TAF TAF EGPM 290337Z 2903/2915 22005KT 9999 SCT030 PROB30 TEMPO 2903/2906 7000 SHRAGS BECMG 2906/2909 32015KT PROB40 TEMPO 2906/2915 6000 SHRA SHGS BKN012CB